createdAt,value
2022-11-24T00:01:36.273Z,99349.06
2022-11-24T00:04:24.271Z,99347.98
2022-11-24T00:07:12.397Z,99353.95
2022-11-24T00:10:00.051Z,99353.66
2022-11-24T00:12:47.575Z,99350.77
2022-11-24T00:15:34.983Z,99346.75
2022-11-24T00:18:22.391Z,99344.03
2022-11-24T00:21:10.736Z,99343.52
2022-11-24T00:23:58.312Z,99342.81
2022-11-24T00:26:45.608Z,99344.55
2022-11-24T00:29:33.347Z,99343.79
2022-11-24T00:32:20.991Z,99349.17
2022-11-24T00:35:09.147Z,99346.91
2022-11-24T00:37:56.593Z,99346.17
2022-11-24T00:40:44.380Z,99347.71
2022-11-24T00:43:32.335Z,99357.58
2022-11-24T00:46:21.209Z,99360.83
2022-11-24T00:49:09.167Z,99364.77
2022-11-24T00:51:56.919Z,99362.58
2022-11-24T00:54:44.837Z,99371.02
2022-11-24T00:57:35.619Z,99365.83
2022-11-24T01:00:23.234Z,99369.59
2022-11-24T01:03:10.882Z,99372.96
2022-11-24T01:06:18.299Z,99372.61
2022-11-24T01:09:06.095Z,99368.67
2022-11-24T01:12:02.505Z,99370.05
2022-11-24T01:14:50.125Z,99370.54
2022-11-24T01:17:37.639Z,99369.29
2022-11-24T01:20:25.368Z,99370.23
2022-11-24T01:23:13.014Z,99370.58
2022-11-24T01:26:05.032Z,99372.70
2022-11-24T01:28:57.348Z,99379.70
2022-11-24T01:31:45.126Z,99382.33
2022-11-24T01:34:32.889Z,99380.45
2022-11-24T01:37:20.705Z,99375.55
2022-11-24T01:40:09.644Z,99372.85
2022-11-24T01:42:57.506Z,99367.57
2022-11-24T01:45:45.833Z,99366.35
2022-11-24T01:48:43.949Z,99366.63
2022-11-24T01:51:37.121Z,99367.50
2022-11-24T01:54:31.584Z,99367.24
2022-11-24T01:57:35.655Z,99370.65
2022-11-24T02:00:23.541Z,99368.86
2022-11-24T02:03:20.009Z,99372.71
2022-11-24T02:06:17.098Z,99375.98
2022-11-24T02:09:16.700Z,99378.20
2022-11-24T02:12:06.182Z,99374.85
2022-11-24T02:14:56.094Z,99374.55
2022-11-24T02:17:44.366Z,99375.95
2022-11-24T02:20:32.463Z,99371.21
2022-11-24T02:24:08.205Z,99370.45
2022-11-24T02:26:56.281Z,99373.61
2022-11-24T02:29:44.451Z,99373.44
2022-11-24T02:32:33.522Z,99366.90
2022-11-24T02:35:21.607Z,99364.97
2022-11-24T02:38:13.984Z,99366.11
2022-11-24T02:41:07.839Z,99374.14
2022-11-24T02:43:59.580Z,99374.09
2022-11-24T02:46:47.612Z,99367.95
2022-11-24T02:49:35.869Z,99365.88
2022-11-24T02:52:23.594Z,99370.73
2022-11-24T02:55:11.572Z,99376.23
2022-11-24T02:57:59.343Z,99379.58
2022-11-24T03:00:47.880Z,99379.80
2022-11-24T03:03:35.746Z,99380.85
2022-11-24T03:06:23.524Z,99380.65
2022-11-24T03:09:11.650Z,99382.52
2022-11-24T03:11:59.385Z,99378.84
2022-11-24T03:14:47.062Z,99377.02
2022-11-24T03:17:34.560Z,99374.91
2022-11-24T03:20:22.217Z,99374.52
2022-11-24T03:23:10.025Z,99374.30
2022-11-24T03:26:12.269Z,99376.55
2022-11-24T03:28:59.696Z,99382.80
2022-11-24T03:31:47.546Z,99379.80
2022-11-24T03:34:35.458Z,99380.48
2022-11-24T03:37:23.566Z,99375.95
2022-11-24T03:40:11.798Z,99375.63
2022-11-24T03:42:59.470Z,99381.23
2022-11-24T03:45:49.351Z,99380.92
2022-11-24T03:48:36.822Z,99384.22
2022-11-24T03:51:24.536Z,99382.66
2022-11-24T03:54:12.734Z,99390.64
2022-11-24T03:57:00.306Z,99398.56
2022-11-24T03:59:48.043Z,99394.55
2022-11-24T04:02:35.530Z,99397.19
2022-11-24T04:05:25.325Z,99394.82
2022-11-24T04:08:14.187Z,99393.89
2022-11-24T04:11:01.930Z,99399.15
2022-11-24T04:13:49.893Z,99407.66
2022-11-24T04:16:37.705Z,99409.65
2022-11-24T04:19:25.694Z,99418.46
2022-11-24T04:22:13.408Z,99427.98
2022-11-24T04:25:00.804Z,99435.96
2022-11-24T04:27:53.155Z,99437.11
2022-11-24T04:30:44.967Z,99439.69
2022-11-24T04:33:33.341Z,99438.41
2022-11-24T04:36:21.327Z,99440.59
2022-11-24T04:39:23.901Z,99439.41
2022-11-24T04:42:14.918Z,99449.10
2022-11-24T04:45:02.997Z,99453.56
2022-11-24T04:47:51.171Z,99454.85
2022-11-24T04:50:40.058Z,99459.67
2022-11-24T04:53:28.250Z,99464.92
2022-11-24T04:56:15.659Z,99461.73
2022-11-24T04:59:07.999Z,99465.55
2022-11-24T05:01:56.271Z,99466.14
2022-11-24T05:04:44.997Z,99460.23
2022-11-24T05:07:35.126Z,99452.41
2022-11-24T05:10:37.889Z,99446.39
2022-11-24T05:13:25.528Z,99441.52
2022-11-24T05:16:13.188Z,99440.61
2022-11-24T05:19:01.106Z,99440.71
2022-11-24T05:21:48.713Z,99445.31
2022-11-24T05:24:36.416Z,99447.83
2022-11-24T05:27:24.652Z,99443.50
2022-11-24T05:30:12.819Z,99453.07
2022-11-24T05:33:07.363Z,99456.38
2022-11-24T05:35:55.370Z,99456.42
2022-11-24T05:38:42.805Z,99456.23
2022-11-24T05:41:30.135Z,99461.64
2022-11-24T05:44:18.156Z,99464.92
2022-11-24T05:47:05.656Z,99462.02
2022-11-24T05:49:53.254Z,99468.66
2022-11-24T05:52:41.214Z,99473.76
2022-11-24T05:55:28.968Z,99474.39
2022-11-24T05:58:16.754Z,99472.04
2022-11-24T06:01:07.864Z,99471.92
2022-11-24T06:03:55.288Z,99467.15
2022-11-24T06:06:42.982Z,99465.51
2022-11-24T06:09:30.587Z,99460.97
2022-11-24T06:12:18.519Z,99460.73
2022-11-24T06:15:06.918Z,99459.17
2022-11-24T06:17:56.145Z,99456.88
2022-11-24T06:20:49.104Z,99462.13
2022-11-24T06:23:51.004Z,99471.89
2022-11-24T06:26:38.683Z,99464.23
2022-11-24T06:29:26.111Z,99467.54
2022-11-24T06:32:14.536Z,99482.33
2022-11-24T06:35:02.201Z,99484.66
2022-11-24T06:37:49.615Z,99486.41
2022-11-24T06:40:37.319Z,99488.91
2022-11-24T06:43:27.938Z,99487.04
2022-11-24T06:46:15.580Z,99493.84
2022-11-24T06:49:03.626Z,99498.20
2022-11-24T06:51:51.589Z,99505.66
2022-11-24T06:54:39.532Z,99506.14
2022-11-24T06:57:31.257Z,99516.14
2022-11-24T07:00:19.474Z,99525.48
2022-11-24T07:03:06.906Z,99528.88
2022-11-24T07:05:58.702Z,99527.84
2022-11-24T07:08:47.333Z,99532.27
2022-11-24T07:11:38.165Z,99533.30
2022-11-24T07:14:25.993Z,99539.38
2022-11-24T07:17:13.627Z,99544.94
2022-11-24T07:20:01.353Z,99540.30
2022-11-24T07:22:48.939Z,99534.38
2022-11-24T07:25:36.413Z,99544.20
2022-11-24T07:28:24.285Z,99545.98
2022-11-24T07:31:19.095Z,99534.17
2022-11-24T07:34:06.612Z,99543.29
2022-11-24T07:36:54.063Z,99552.48
2022-11-24T07:39:41.861Z,99548.38
2022-11-24T07:42:29.700Z,99545.42
2022-11-24T07:45:17.494Z,99546.38
2022-11-24T07:48:05.615Z,99548.48
2022-11-24T07:50:56.550Z,99547.84
2022-11-24T07:53:45.427Z,99547.50
2022-11-24T07:56:33.255Z,99551.33
2022-11-24T07:59:21.151Z,99547.68
2022-11-24T08:02:13.033Z,99542.48
2022-11-24T08:05:01.217Z,99543.05
2022-11-24T08:07:49.413Z,99539.21
2022-11-24T08:10:37.036Z,99539.33
2022-11-24T08:13:24.509Z,99537.89
2022-11-24T08:16:15.513Z,99535.30
2022-11-24T08:19:03.215Z,99530.92
2022-11-24T08:21:50.950Z,99530.41
2022-11-24T08:24:38.696Z,99532.05
2022-11-24T08:27:26.179Z,99531.65
2022-11-24T08:30:14.530Z,99531.68
2022-11-24T08:33:02.282Z,99534.46
2022-11-24T08:35:50.032Z,99533.77
2022-11-24T08:38:38.467Z,99539.11
2022-11-24T08:41:28.002Z,99547.81
2022-11-24T08:44:16.054Z,99550.38
2022-11-24T08:47:03.698Z,99548.53
2022-11-24T08:49:51.247Z,99554.82
2022-11-24T08:52:38.854Z,99560.52
2022-11-24T08:55:26.566Z,99560.29
2022-11-24T08:58:14.156Z,99559.35
2022-11-24T09:01:19.804Z,99556.39
2022-11-24T09:04:07.555Z,99551.16
2022-11-24T09:06:54.975Z,99549.95
2022-11-24T09:09:42.317Z,99553.40
2022-11-24T09:12:29.902Z,99557.69
2022-11-24T09:15:19.063Z,99561.65
2022-11-24T09:18:06.455Z,99562.73
2022-11-24T09:20:57.407Z,99563.47
2022-11-24T09:23:50.168Z,99565.56
2022-11-24T09:26:44.625Z,99565.77
2022-11-24T09:29:35.801Z,99567.69
2022-11-24T09:32:23.891Z,99566.51
2022-11-24T09:35:11.560Z,99565.57
2022-11-24T09:37:59.076Z,99565.63
2022-11-24T09:40:46.961Z,99572.20
2022-11-24T09:43:46.279Z,99574.74
2022-11-24T09:47:14.850Z,99570.64
2022-11-24T09:50:11.638Z,99574.16
2022-11-24T09:53:13.501Z,99580.65
2022-11-24T09:56:31.002Z,99577.17
2022-11-24T09:59:23.498Z,99579.23
2022-11-24T10:02:13.352Z,99578.23
2022-11-24T10:05:01.277Z,99574.00
2022-11-24T10:08:17.231Z,99575.81
2022-11-24T10:11:21.249Z,99582.20
2022-11-24T10:14:59.222Z,99583.08
2022-11-24T10:18:17.426Z,99584.42
2022-11-24T10:21:36.940Z,99582.61
2022-11-24T10:24:50.575Z,99581.23
2022-11-24T10:27:45.076Z,99573.38
2022-11-24T10:30:32.794Z,99572.21
2022-11-24T10:33:30.020Z,99569.42
2022-11-24T10:36:48.447Z,99572.94
2022-11-24T10:40:40.401Z,99565.45
2022-11-24T10:43:21.917Z,99562.34
2022-11-24T10:46:24.655Z,99562.51
2022-11-24T10:49:25.228Z,99564.19
2022-11-24T10:52:18.843Z,99569.23
2022-11-24T10:55:06.849Z,99568.78
2022-11-24T10:57:54.460Z,99572.34
2022-11-24T11:00:42.087Z,99572.39
2022-11-24T11:03:34.043Z,99578.71
2022-11-24T11:06:28.687Z,99586.58
2022-11-24T11:09:20.022Z,99593.74
2022-11-24T11:12:42.755Z,99590.95
2022-11-24T11:15:31.639Z,99587.95
2022-11-24T11:18:20.988Z,99585.52
2022-11-24T11:21:24.207Z,99585.53
2022-11-24T11:24:18.251Z,99581.30
2022-11-24T11:27:19.827Z,99579.77
2022-11-24T11:36:50.097Z,99577.15
2022-11-24T11:39:48.496Z,99579.45
2022-11-24T11:43:03.924Z,99572.59
2022-11-24T11:46:04.132Z,99576.75
2022-11-24T11:48:52.752Z,99574.17
2022-11-24T11:52:18.316Z,99570.16
2022-11-24T11:55:50.261Z,99578.54
2022-11-24T11:58:59.168Z,99579.98
2022-11-24T12:02:05.338Z,99579.31
2022-11-24T12:05:04.083Z,99580.02
2022-11-24T12:08:27.990Z,99575.21
2022-11-24T12:11:31.070Z,99584.63
2022-11-24T12:14:44.810Z,99578.73
2022-11-24T12:17:42.823Z,99575.81
2022-11-24T12:21:02.483Z,99576.92
2022-11-24T12:24:21.989Z,99582.38
2022-11-24T12:28:03.686Z,99589.54
2022-11-24T12:31:08.122Z,99594.36
2022-11-24T12:34:17.874Z,99594.17
2022-11-24T12:38:00.455Z,99590.23
2022-11-24T12:41:45.573Z,99592.67
2022-11-24T12:44:48.089Z,99591.90
2022-11-24T12:47:57.217Z,99587.09
2022-11-24T12:50:46.088Z,99585.14
2022-11-24T12:53:37.414Z,99589.85
2022-11-24T12:56:43.430Z,99592.75
2022-11-24T12:59:45.306Z,99594.88
2022-11-24T13:02:48.871Z,99588.12
2022-11-24T13:05:51.965Z,99595.29
2022-11-24T13:08:40.773Z,99597.77
2022-11-24T13:11:40.115Z,99600.17
2022-11-24T13:14:34.281Z,99605.90
2022-11-24T13:17:44.653Z,99605.73
2022-11-24T13:20:40.897Z,99610.55
2022-11-24T13:23:29.264Z,99614.10
2022-11-24T13:26:42.862Z,99615.92
2022-11-24T13:29:36.289Z,99622.95
2022-11-24T13:32:44.160Z,99618.35
2022-11-24T13:35:31.962Z,99614.37
2022-11-24T13:38:53.885Z,99614.41
2022-11-24T13:41:41.552Z,99611.59
2022-11-24T13:44:43.533Z,99618.55
2022-11-24T13:47:45.329Z,99620.79
2022-11-24T13:51:02.658Z,99628.95
2022-11-24T13:53:53.666Z,99630.52
2022-11-24T13:56:41.170Z,99637.00
2022-11-24T13:59:35.468Z,99645.20
2022-11-24T14:02:24.226Z,99648.07
2022-11-24T14:05:22.726Z,99649.52
2022-11-24T14:08:21.217Z,99655.30
2022-11-24T14:11:15.464Z,99650.60
2022-11-24T14:14:20.709Z,99648.73
2022-11-24T14:17:16.933Z,99651.89
2022-11-24T14:20:23.494Z,99651.67
2022-11-24T14:23:11.392Z,99651.95
2022-11-24T14:25:59.452Z,99656.75
2022-11-24T14:28:48.034Z,99652.08
2022-11-24T14:31:35.816Z,99654.41
2022-11-24T14:34:26.023Z,99658.08
2022-11-24T14:37:13.607Z,99662.02
2022-11-24T14:40:01.215Z,99668.65
2022-11-24T14:42:50.973Z,99671.86
2022-11-24T14:45:39.314Z,99673.98
2022-11-24T14:48:50.803Z,99668.45
2022-11-24T14:51:44.361Z,99667.30
2022-11-24T14:54:32.781Z,99668.55
2022-11-24T14:57:30.557Z,99676.50
2022-11-24T15:00:32.618Z,99678.86
2022-11-24T15:03:20.481Z,99673.38
2022-11-24T15:06:19.904Z,99675.68
2022-11-24T15:09:34.671Z,99680.50
2022-11-24T15:12:48.553Z,99684.17
2022-11-24T15:15:38.550Z,99691.30
2022-11-24T15:18:48.903Z,99691.44
2022-11-24T15:21:37.456Z,99700.02
2022-11-24T15:24:25.165Z,99700.83
2022-11-24T15:27:13.088Z,99699.48
2022-11-24T15:30:00.665Z,99699.28
2022-11-24T15:32:55.381Z,99704.11
2022-11-24T15:35:43.772Z,99705.92
2022-11-24T15:38:31.677Z,99706.75
2022-11-24T15:41:21.563Z,99701.09
2022-11-24T15:44:10.343Z,99701.70
2022-11-24T15:46:58.013Z,99709.17
2022-11-24T15:49:45.442Z,99709.14
2022-11-24T15:52:32.925Z,99714.46
2022-11-24T15:55:22.450Z,99714.83
2022-11-24T15:58:13.805Z,99718.95
2022-11-24T16:01:01.511Z,99721.06
2022-11-24T16:03:49.655Z,99721.20
2022-11-24T16:06:37.300Z,99714.30
2022-11-24T16:09:25.040Z,99713.27
2022-11-24T16:12:12.613Z,99710.42
2022-11-24T16:15:00.328Z,99712.21
2022-11-24T16:17:48.397Z,99712.08
2022-11-24T16:20:36.303Z,99710.20
2022-11-24T16:23:23.871Z,99716.41
2022-11-24T16:26:11.810Z,99713.88
2022-11-24T16:28:59.532Z,99713.13
2022-11-24T16:31:47.706Z,99711.93
2022-11-24T16:34:35.582Z,99713.76
2022-11-24T16:37:23.483Z,99719.28
2022-11-24T16:40:11.980Z,99717.19
2022-11-24T16:42:59.957Z,99720.95
2022-11-24T16:46:21.353Z,99726.38
2022-11-24T16:49:09.247Z,99720.81
2022-11-24T16:51:56.908Z,99725.27
2022-11-24T16:54:47.302Z,99725.34
2022-11-24T16:57:36.914Z,99725.05
2022-11-24T17:00:24.845Z,99722.05
2022-11-24T17:03:12.595Z,99723.70
2022-11-24T17:06:01.020Z,99720.71
2022-11-24T17:08:48.712Z,99726.67
2022-11-24T17:11:36.747Z,99728.22
2022-11-24T17:14:24.469Z,99723.21
2022-11-24T17:17:12.045Z,99727.69
2022-11-24T17:20:00.025Z,99725.33
2022-11-24T17:22:49.910Z,99733.95
2022-11-24T17:25:37.972Z,99732.16
2022-11-24T17:28:27.910Z,99736.69
2022-11-24T17:31:33.304Z,99741.28
2022-11-24T17:34:20.812Z,99740.41
2022-11-24T17:37:08.675Z,99745.64
2022-11-24T17:40:20.800Z,99754.55
2022-11-24T17:43:04.511Z,99755.39
2022-11-24T17:45:57.589Z,99762.31
2022-11-24T17:48:47.013Z,99760.58
2022-11-24T17:51:35.201Z,99763.77
2022-11-24T17:57:30.329Z,99772.63
2022-11-24T18:00:18.587Z,99773.36
2022-11-24T18:03:06.333Z,99781.66
2022-11-24T18:05:53.892Z,99778.72
2022-11-24T18:08:45.713Z,99781.02
2022-11-24T18:11:33.291Z,99784.65
2022-11-24T18:14:21.095Z,99779.78
2022-11-24T18:17:10.187Z,99784.70
2022-11-24T18:19:57.908Z,99781.83
2022-11-24T18:25:59.590Z,99787.81
2022-11-24T18:28:47.737Z,99787.25
2022-11-24T18:31:36.343Z,99788.90
2022-11-24T18:34:24.847Z,99791.48
2022-11-24T18:37:14.794Z,99791.67
2022-11-24T18:40:02.932Z,99791.88
2022-11-24T18:42:50.445Z,99789.59
2022-11-24T18:45:38.740Z,99793.45
2022-11-24T18:48:26.914Z,99793.20
2022-11-24T18:51:14.851Z,99795.06
2022-11-24T18:54:04.815Z,99797.54
2022-11-24T18:56:52.331Z,99801.16
2022-11-24T18:59:40.030Z,99802.49
2022-11-24T19:02:27.635Z,99803.76
2022-11-24T19:05:15.564Z,99801.50
2022-11-24T19:08:05.642Z,99800.52
2022-11-24T19:10:53.298Z,99806.50
2022-11-24T19:13:41.035Z,99802.30
2022-11-24T19:16:29.219Z,99803.75
2022-11-24T19:19:17.540Z,99805.82
2022-11-24T19:22:05.527Z,99796.67
2022-11-24T19:24:55.116Z,99800.45
2022-11-24T19:27:42.782Z,99796.05
2022-11-24T19:30:30.384Z,99798.00
2022-11-24T19:33:18.969Z,99798.32
2022-11-24T19:36:11.057Z,99801.13
2022-11-24T19:38:59.818Z,99801.11
2022-11-24T19:41:47.450Z,99805.21
2022-11-24T19:44:36.479Z,99807.77
2022-11-24T19:47:24.379Z,99816.32
2022-11-24T19:50:12.326Z,99821.20
2022-11-24T19:53:00.132Z,99824.46
2022-11-24T19:55:49.469Z,99825.98
2022-11-24T19:58:38.062Z,99830.45
2022-11-24T20:01:32.175Z,99834.85
2022-11-24T20:04:20.584Z,99838.64
2022-11-24T20:07:08.224Z,99840.10
2022-11-24T20:09:59.880Z,99839.54
2022-11-24T20:12:50.994Z,99840.99
2022-11-24T20:15:38.760Z,99837.33
2022-11-24T20:18:27.234Z,99836.80
2022-11-24T20:21:21.149Z,99837.33
2022-11-24T20:24:17.261Z,99835.49
2022-11-24T20:27:06.341Z,99836.84
2022-11-24T20:29:54.257Z,99838.85
2022-11-24T20:32:41.584Z,99846.16
2022-11-24T20:35:29.235Z,99850.06
2022-11-24T20:38:16.754Z,99849.69
2022-11-24T20:41:11.914Z,99849.38
2022-11-24T20:44:05.179Z,99851.73
2022-11-24T20:46:56.854Z,99851.77
2022-11-24T20:49:44.720Z,99851.84
2022-11-24T20:52:32.881Z,99857.10
2022-11-24T20:55:20.585Z,99863.33
2022-11-24T20:58:08.328Z,99865.67
2022-11-24T21:01:02.971Z,99872.06
2022-11-24T21:03:58.384Z,99872.71
2022-11-24T21:06:46.885Z,99874.39
2022-11-24T21:09:34.527Z,99875.55
2022-11-24T21:12:21.978Z,99876.92
2022-11-24T21:15:09.926Z,99877.17
2022-11-24T21:17:57.536Z,99880.54
2022-11-24T21:20:47.145Z,99881.35
2022-11-24T21:23:34.660Z,99880.38
2022-11-24T21:26:24.747Z,99880.77
2022-11-24T21:29:14.291Z,99883.27
2022-11-24T21:32:04.832Z,99886.33
2022-11-24T21:34:52.584Z,99887.87
2022-11-24T21:37:40.144Z,99887.98
2022-11-24T21:40:28.537Z,99894.01
2022-11-24T21:43:16.113Z,99892.82
2022-11-24T21:46:12.682Z,99894.77
2022-11-24T21:49:00.579Z,99898.52
2022-11-24T21:51:55.366Z,99898.38
2022-11-24T21:54:43.397Z,99893.64
2022-11-24T21:57:31.462Z,99895.44
2022-11-24T22:00:19.999Z,99892.98
2022-11-24T22:03:08.031Z,99887.53
2022-11-24T22:06:01.862Z,99887.45
2022-11-24T22:08:50.127Z,99886.47
2022-11-24T22:11:38.206Z,99889.48
2022-11-24T22:14:27.665Z,99894.54
2022-11-24T22:17:16.635Z,99898.02
2022-11-24T22:20:06.721Z,99897.44
2022-11-24T22:22:54.319Z,99896.21
2022-11-24T22:25:41.769Z,99899.02
2022-11-24T22:28:35.354Z,99894.52
2022-11-24T22:31:30.395Z,99896.40
2022-11-24T22:34:18.073Z,99895.16
2022-11-24T22:37:05.821Z,99896.96
2022-11-24T22:39:55.462Z,99893.41
2022-11-24T22:42:44.213Z,99891.80
2022-11-24T22:45:35.937Z,99890.27
2022-11-24T22:48:35.793Z,99885.27
2022-11-24T22:51:27.643Z,99895.24
2022-11-24T22:54:15.927Z,99895.70
2022-11-24T22:57:04.045Z,99901.92
2022-11-24T22:59:51.587Z,99902.67
2022-11-24T23:02:39.096Z,99898.39
2022-11-24T23:05:27.063Z,99903.48
2022-11-24T23:08:16.268Z,99898.64
2022-11-24T23:11:08.066Z,99893.41
2022-11-24T23:13:57.048Z,99893.86
2022-11-24T23:16:44.849Z,99895.34
2022-11-24T23:19:32.388Z,99901.81
2022-11-24T23:22:19.976Z,99894.11
2022-11-24T23:25:08.091Z,99892.36
2022-11-24T23:27:55.773Z,99894.84
2022-11-24T23:30:43.743Z,99890.34
2022-11-24T23:33:32.254Z,99894.85
2022-11-24T23:36:21.074Z,99902.77
2022-11-24T23:39:12.336Z,99904.20
2022-11-24T23:42:00.088Z,99906.04
2022-11-24T23:44:47.784Z,99903.77
2022-11-24T23:47:35.444Z,99905.21
2022-11-24T23:50:22.862Z,99910.06
2022-11-24T23:53:10.536Z,99908.70
2022-11-24T23:55:58.398Z,99905.54
2022-11-24T23:58:46.651Z,99906.63
